<?xml version="1.0" encoding="UTF-8" standalone="no" ?>
<gpx xmlns="http://www.topografix.com/GPX/1/1" xmlns:xsi="http://www.w3.org/2001/XMLSchema-instance" xsi:schemaLocation="http://www.topografix.com/GPX/1/1 http://www.topografix.com/GPX/1/1/gpx.xsd" version="1.1" creator="VisuGPX - https://www.visugpx.com">
  <metadata>
    <name>Mandailles 2021 - Jour 1</name>
  </metadata>
  <wpt lat="45.07359" lon="2.65771">
    <ele>1009.4</ele>
    <name><![CDATA[EAU]]></name>
    <type><![CDATA[drink]]></type>
  </wpt>
  <wpt lat="45.06779" lon="2.65862">
    <ele>948.8</ele>
    <name><![CDATA[EAU]]></name>
    <type><![CDATA[drink]]></type>
  </wpt>
  <wpt lat="45.08587" lon="2.65565">
    <ele>1156.1</ele>
    <name><![CDATA[EAU]]></name>
    <type><![CDATA[water]]></type>
  </wpt>
  <wpt lat="45.09109" lon="2.65877">
    <ele>1220.3</ele>
    <name><![CDATA[EAU]]></name>
    <type><![CDATA[water]]></type>
  </wpt>
  <wpt lat="45.09245" lon="2.6621">
    <ele>1202.4</ele>
    <name><![CDATA[EAU]]></name>
    <type><![CDATA[water]]></type>
  </wpt>
  <wpt lat="45.09893" lon="2.66124">
    <ele>1322.6</ele>
    <name><![CDATA[EAU]]></name>
    <type><![CDATA[water]]></type>
  </wpt>
  <wpt lat="45.06925" lon="2.65762">
    <ele>927.2</ele>
    <name><![CDATA[MANDAILLES]]></name>
    <type><![CDATA[ville]]></type>
  </wpt>
  <wpt lat="45.09627" lon="2.64472">
    <ele>1716.3</ele>
    <name><![CDATA[PUY CHAVAROCHE]]></name>
    <type><![CDATA[sommet]]></type>
  </wpt>
  <wpt lat="45.07612" lon="2.61298">
    <ele>1348.3</ele>
    <name><![CDATA[REFUGE DE CABRESPINE]]></name>
    <type><![CDATA[refuge]]></type>
  </wpt>
  <wpt lat="45.06764" lon="2.60472">
    <ele>1188.8</ele>
    <name><![CDATA[GROTTE DE LA REVEILLADE]]></name>
    <type><![CDATA[patrimoine_geo]]></type>
  </wpt>
  <wpt lat="45.06129" lon="2.6067">
    <ele>1020.3</ele>
    <name><![CDATA[BUNKER]]></name>
    <type><![CDATA[patrimoine]]></type>
  </wpt>
  <wpt lat="45.07196" lon="2.59848">
    <ele>1433</ele>
    <name><![CDATA[PUY DE BASSIEROU]]></name>
    <desc><![CDATA[1444 M]]></desc>
    <type><![CDATA[sommet]]></type>
  </wpt>
  <wpt lat="45.10236" lon="2.65399">
    <ele>1631.3</ele>
    <name><![CDATA[COL DE REDONDET]]></name>
    <desc><![CDATA[1531 M]]></desc>
    <type><![CDATA[col]]></type>
  </wpt>
  <wpt lat="45.10396" lon="2.65594">
    <ele>1648.9</ele>
    <name><![CDATA[LA CHAPELOUNE]]></name>
    <desc><![CDATA[1686 M]]></desc>
    <type><![CDATA[sommet]]></type>
  </wpt>
  <wpt lat="45.06508" lon="2.59937">
    <ele>1156.6</ele>
    <name><![CDATA[EAU]]></name>
    <type><![CDATA[drink]]></type>
  </wpt>
  <wpt lat="45.0662" lon="2.59647">
    <ele>1248.2</ele>
    <name><![CDATA[EAU]]></name>
    <type><![CDATA[drink]]></type>
  </wpt>
  <trk>
    <name><![CDATA[Mandailles 2021 - Jour 1_1]]></name>
    <extensions>
      <line xmlns="http://www.topografix.com/GPX/gpx_style/0/2">
        <color>FF0000</color>
        <width>4</width>
      </line>
    </extensions>
    <trkseg>
      <trkpt lat="45.06979" lon="2.65541">
        <ele>941.936</ele>
        <time>2020-05-10T15:09:19Z</time>
      </trkpt>
      <trkpt lat="45.06979" lon="2.65541">
        <ele>941.936</ele>
        <time>2020-05-10T15:09:19Z</time>
      </trkpt>
      <trkpt lat="45.06927" lon="2.65512">
        <ele>938.817</ele>
        <time>2020-05-10T15:09:39Z</time>
      </trkpt>
      <trkpt lat="45.06862" lon="2.65368">
        <ele>937.918</ele>
        <time>2020-05-10T15:09:59Z</time>
      </trkpt>
      <trkpt lat="45.06848" lon="2.65256">
        <ele>935.508</ele>
        <time>2020-05-10T15:10:19Z</time>
      </trkpt>
      <trkpt lat="45.06851" lon="2.6522">
        <ele>938.487</ele>
        <time>2020-05-10T15:10:39Z</time>
      </trkpt>
      <trkpt lat="45.06839" lon="2.65177">
        <ele>934.222</ele>
        <time>2020-05-10T15:10:59Z</time>
      </trkpt>
      <trkpt lat="45.06838" lon="2.65108">
        <ele>940.794</ele>
        <time>2020-05-10T15:11:19Z</time>
      </trkpt>
      <trkpt lat="45.06796" lon="2.65037">
        <ele>930.559</ele>
        <time>2020-05-10T15:11:39Z</time>
      </trkpt>
      <trkpt lat="45.06761" lon="2.64926">
        <ele>924.863</ele>
        <time>2020-05-10T15:11:59Z</time>
      </trkpt>
      <trkpt lat="45.06758" lon="2.64892">
        <ele>927.467</ele>
        <time>2020-05-10T15:12:19Z</time>
      </trkpt>
      <trkpt lat="45.06763" lon="2.64843">
        <ele>926.711</ele>
        <time>2020-05-10T15:12:39Z</time>
      </trkpt>
      <trkpt lat="45.06743" lon="2.64721">
        <ele>925.451</ele>
        <time>2020-05-10T15:12:59Z</time>
      </trkpt>
      <trkpt lat="45.06704" lon="2.64594">
        <ele>932.564</ele>
        <time>2020-05-10T15:13:19Z</time>
      </trkpt>
      <trkpt lat="45.06694" lon="2.64528">
        <ele>937.406</ele>
        <time>2020-05-10T15:13:39Z</time>
      </trkpt>
      <trkpt lat="45.06686" lon="2.6451">
        <ele>935.616</ele>
        <time>2020-05-10T15:13:59Z</time>
      </trkpt>
      <trkpt lat="45.06684" lon="2.64479">
        <ele>938.508</ele>
        <time>2020-05-10T15:14:19Z</time>
      </trkpt>
      <trkpt lat="45.06654" lon="2.64381">
        <ele>928.93</ele>
        <time>2020-05-10T15:14:39Z</time>
      </trkpt>
      <trkpt lat="45.06626" lon="2.64368">
        <ele>927.135</ele>
        <time>2020-05-10T15:14:59Z</time>
      </trkpt>
      <trkpt lat="45.06602" lon="2.64326">
        <ele>926.877</ele>
        <time>2020-05-10T15:15:19Z</time>
      </trkpt>
      <trkpt lat="45.06587" lon="2.64256">
        <ele>925.822</ele>
        <time>2020-05-10T15:15:39Z</time>
      </trkpt>
      <trkpt lat="45.06587" lon="2.64152">
        <ele>925.976</ele>
        <time>2020-05-10T15:15:59Z</time>
      </trkpt>
      <trkpt lat="45.06556" lon="2.64133">
        <ele>916.18</ele>
        <time>2020-05-10T15:16:19Z</time>
      </trkpt>
      <trkpt lat="45.06506" lon="2.64146">
        <ele>912.584</ele>
        <time>2020-05-10T15:16:39Z</time>
      </trkpt>
      <trkpt lat="45.06486" lon="2.64128">
        <ele>906.114</ele>
        <time>2020-05-10T15:16:59Z</time>
      </trkpt>
      <trkpt lat="45.06468" lon="2.64069">
        <ele>905.836</ele>
        <time>2020-05-10T15:17:19Z</time>
      </trkpt>
      <trkpt lat="45.06461" lon="2.64014">
        <ele>904.417</ele>
        <time>2020-05-10T15:17:39Z</time>
      </trkpt>
      <trkpt lat="45.06447" lon="2.64001">
        <ele>902.918</ele>
        <time>2020-05-10T15:17:59Z</time>
      </trkpt>
      <trkpt lat="45.06462" lon="2.63903">
        <ele>900.208</ele>
        <time>2020-05-10T15:18:19Z</time>
      </trkpt>
      <trkpt lat="45.06468" lon="2.63791">
        <ele>900.197</ele>
        <time>2020-05-10T15:18:39Z</time>
      </trkpt>
      <trkpt lat="45.06412" lon="2.63719">
        <ele>894.092</ele>
        <time>2020-05-10T15:18:59Z</time>
      </trkpt>
      <trkpt lat="45.06407" lon="2.63667">
        <ele>894.544</ele>
        <time>2020-05-10T15:19:19Z</time>
      </trkpt>
      <trkpt lat="45.06429" lon="2.63518">
        <ele>902.969</ele>
        <time>2020-05-10T15:19:39Z</time>
      </trkpt>
      <trkpt lat="45.06424" lon="2.63471">
        <ele>904.963</ele>
        <time>2020-05-10T15:19:59Z</time>
      </trkpt>
      <trkpt lat="45.06448" lon="2.63365">
        <ele>907.737</ele>
        <time>2020-05-10T15:20:19Z</time>
      </trkpt>
      <trkpt lat="45.06471" lon="2.63324">
        <ele>912.381</ele>
        <time>2020-05-10T15:20:39Z</time>
      </trkpt>
      <trkpt lat="45.06454" lon="2.63284">
        <ele>911.241</ele>
        <time>2020-05-10T15:20:59Z</time>
      </trkpt>
      <trkpt lat="45.06455" lon="2.63235">
        <ele>915.589</ele>
        <time>2020-05-10T15:21:19Z</time>
      </trkpt>
      <trkpt lat="45.06475" lon="2.63158">
        <ele>923.706</ele>
        <time>2020-05-10T15:21:39Z</time>
      </trkpt>
      <trkpt lat="45.06492" lon="2.63036">
        <ele>926.126</ele>
        <time>2020-05-10T15:21:59Z</time>
      </trkpt>
      <trkpt lat="45.06505" lon="2.63014">
        <ele>939.008</ele>
        <time>2020-05-10T15:22:19Z</time>
      </trkpt>
      <trkpt lat="45.06507" lon="2.62965">
        <ele>942.842</ele>
        <time>2020-05-10T15:22:39Z</time>
      </trkpt>
      <trkpt lat="45.06557" lon="2.62941">
        <ele>949.447</ele>
        <time>2020-05-10T15:22:59Z</time>
      </trkpt>
      <trkpt lat="45.06548" lon="2.62915">
        <ele>952.949</ele>
        <time>2020-05-10T15:23:19Z</time>
      </trkpt>
      <trkpt lat="45.06545" lon="2.62862">
        <ele>955.454</ele>
        <time>2020-05-10T15:23:39Z</time>
      </trkpt>
      <trkpt lat="45.06525" lon="2.62827">
        <ele>963.128</ele>
        <time>2020-05-10T15:23:59Z</time>
      </trkpt>
      <trkpt lat="45.06509" lon="2.6277">
        <ele>968.772</ele>
        <time>2020-05-10T15:24:19Z</time>
      </trkpt>
      <trkpt lat="45.06474" lon="2.62744">
        <ele>964.636</ele>
        <time>2020-05-10T15:24:39Z</time>
      </trkpt>
      <trkpt lat="45.06462" lon="2.62692">
        <ele>963.596</ele>
        <time>2020-05-10T15:24:59Z</time>
      </trkpt>
      <trkpt lat="45.06464" lon="2.6264">
        <ele>962.981</ele>
        <time>2020-05-10T15:25:19Z</time>
      </trkpt>
      <trkpt lat="45.06495" lon="2.62597">
        <ele>967.061</ele>
        <time>2020-05-10T15:25:39Z</time>
      </trkpt>
      <trkpt lat="45.06556" lon="2.6256">
        <ele>979.917</ele>
        <time>2020-05-10T15:25:59Z</time>
      </trkpt>
      <trkpt lat="45.06596" lon="2.62497">
        <ele>989.608</ele>
        <time>2020-05-10T15:26:19Z</time>
      </trkpt>
      <trkpt lat="45.0661" lon="2.62461">
        <ele>998.182</ele>
        <time>2020-05-10T15:26:39Z</time>
      </trkpt>
      <trkpt lat="45.06608" lon="2.62427">
        <ele>997.227</ele>
        <time>2020-05-10T15:26:59Z</time>
      </trkpt>
      <trkpt lat="45.06582" lon="2.62417">
        <ele>987.239</ele>
        <time>2020-05-10T15:27:19Z</time>
      </trkpt>
      <trkpt lat="45.06536" lon="2.6238">
        <ele>987.254</ele>
        <time>2020-05-10T15:27:39Z</time>
      </trkpt>
      <trkpt lat="45.06487" lon="2.62363">
        <ele>976.358</ele>
        <time>2020-05-10T15:27:59Z</time>
      </trkpt>
      <trkpt lat="45.06468" lon="2.62324">
        <ele>978.212</ele>
        <time>2020-05-10T15:28:19Z</time>
      </trkpt>
      <trkpt lat="45.06462" lon="2.62258">
        <ele>977.846</ele>
        <time>2020-05-10T15:28:39Z</time>
      </trkpt>
      <trkpt lat="45.06439" lon="2.62219">
        <ele>981.246</ele>
        <time>2020-05-10T15:28:59Z</time>
      </trkpt>
      <trkpt lat="45.06405" lon="2.62188">
        <ele>969.275</ele>
        <time>2020-05-10T15:29:19Z</time>
      </trkpt>
      <trkpt lat="45.06399" lon="2.62092">
        <ele>976.728</ele>
        <time>2020-05-10T15:29:39Z</time>
      </trkpt>
      <trkpt lat="45.06422" lon="2.62019">
        <ele>998.22</ele>
        <time>2020-05-10T15:29:59Z</time>
      </trkpt>
      <trkpt lat="45.06389" lon="2.61986">
        <ele>982.208</ele>
        <time>2020-05-10T15:30:19Z</time>
      </trkpt>
      <trkpt lat="45.06378" lon="2.6196">
        <ele>980.221</ele>
        <time>2020-05-10T15:30:39Z</time>
      </trkpt>
      <trkpt lat="45.06382" lon="2.61942">
        <ele>981.226</ele>
        <time>2020-05-10T15:30:59Z</time>
      </trkpt>
      <trkpt lat="45.06406" lon="2.61888">
        <ele>987.388</ele>
        <time>2020-05-10T15:31:19Z</time>
      </trkpt>
      <trkpt lat="45.06399" lon="2.61836">
        <ele>990.273</ele>
        <time>2020-05-10T15:31:39Z</time>
      </trkpt>
      <trkpt lat="45.06369" lon="2.61745">
        <ele>995.637</ele>
        <time>2020-05-10T15:31:59Z</time>
      </trkpt>
      <trkpt lat="45.06366" lon="2.61674">
        <ele>999.111</ele>
        <time>2020-05-10T15:32:19Z</time>
      </trkpt>
      <trkpt lat="45.06306" lon="2.61636">
        <ele>997.795</ele>
        <time>2020-05-10T15:32:39Z</time>
      </trkpt>
      <trkpt lat="45.06276" lon="2.61594">
        <ele>1000.035</ele>
        <time>2020-05-10T15:32:59Z</time>
      </trkpt>
      <trkpt lat="45.06266" lon="2.61464">
        <ele>997.631</ele>
        <time>2020-05-10T15:33:19Z</time>
      </trkpt>
      <trkpt lat="45.06278" lon="2.61436">
        <ele>997.161</ele>
        <time>2020-05-10T15:33:39Z</time>
      </trkpt>
      <trkpt lat="45.06271" lon="2.61355">
        <ele>989.407</ele>
        <time>2020-05-10T15:33:59Z</time>
      </trkpt>
      <trkpt lat="45.06285" lon="2.61352">
        <ele>991.408</ele>
        <time>2020-05-10T15:34:19Z</time>
      </trkpt>
      <trkpt lat="45.06307" lon="2.61277">
        <ele>981.177</ele>
        <time>2020-05-10T15:34:39Z</time>
      </trkpt>
      <trkpt lat="45.06399" lon="2.61244">
        <ele>985.232</ele>
        <time>2020-05-10T15:34:59Z</time>
      </trkpt>
      <trkpt lat="45.06469" lon="2.61243">
        <ele>997.564</ele>
        <time>2020-05-10T15:35:19Z</time>
      </trkpt>
      <trkpt lat="45.06506" lon="2.61277">
        <ele>1019.039</ele>
        <time>2020-05-10T15:35:39Z</time>
      </trkpt>
      <trkpt lat="45.06517" lon="2.61279">
        <ele>1020.763</ele>
        <time>2020-05-10T15:35:59Z</time>
      </trkpt>
      <trkpt lat="45.06521" lon="2.6123">
        <ele>1012.697</ele>
        <time>2020-05-10T15:36:19Z</time>
      </trkpt>
      <trkpt lat="45.06538" lon="2.6122">
        <ele>1014.881</ele>
        <time>2020-05-10T15:36:39Z</time>
      </trkpt>
      <trkpt lat="45.06563" lon="2.61171">
        <ele>1016.211</ele>
        <time>2020-05-10T15:36:59Z</time>
      </trkpt>
      <trkpt lat="45.06586" lon="2.61157">
        <ele>1018.532</ele>
        <time>2020-05-10T15:37:19Z</time>
      </trkpt>
      <trkpt lat="45.06622" lon="2.61158">
        <ele>1019.892</ele>
        <time>2020-05-10T15:37:39Z</time>
      </trkpt>
      <trkpt lat="45.06657" lon="2.6114">
        <ele>1022.411</ele>
        <time>2020-05-10T15:37:59Z</time>
      </trkpt>
      <trkpt lat="45.0668" lon="2.61142">
        <ele>1027.408</ele>
        <time>2020-05-10T15:38:19Z</time>
      </trkpt>
      <trkpt lat="45.06735" lon="2.61217">
        <ele>1044.847</ele>
        <time>2020-05-10T15:38:39Z</time>
      </trkpt>
      <trkpt lat="45.06819" lon="2.61303">
        <ele>1057.552</ele>
        <time>2020-05-10T15:38:59Z</time>
      </trkpt>
      <trkpt lat="45.06839" lon="2.61301">
        <ele>1060.754</ele>
        <time>2020-05-10T15:39:19Z</time>
      </trkpt>
      <trkpt lat="45.06859" lon="2.61257">
        <ele>1059.579</ele>
        <time>2020-05-10T15:39:39Z</time>
      </trkpt>
      <trkpt lat="45.06863" lon="2.61214">
        <ele>1060.213</ele>
        <time>2020-05-10T15:39:59Z</time>
      </trkpt>
      <trkpt lat="45.06855" lon="2.61134">
        <ele>1058.397</ele>
        <time>2020-05-10T15:40:19Z</time>
      </trkpt>
      <trkpt lat="45.06862" lon="2.61106">
        <ele>1059.021</ele>
        <time>2020-05-10T15:40:39Z</time>
      </trkpt>
      <trkpt lat="45.06922" lon="2.61074">
        <ele>1076.461</ele>
        <time>2020-05-10T15:40:59Z</time>
      </trkpt>
      <trkpt lat="45.06971" lon="2.61079">
        <ele>1083.578</ele>
        <time>2020-05-10T15:41:19Z</time>
      </trkpt>
      <trkpt lat="45.06979" lon="2.61069">
        <ele>1084.533</ele>
        <time>2020-05-10T15:41:39Z</time>
      </trkpt>
      <trkpt lat="45.06963" lon="2.6101">
        <ele>1083.026</ele>
        <time>2020-05-10T15:41:59Z</time>
      </trkpt>
      <trkpt lat="45.06936" lon="2.60974">
        <ele>1081.708</ele>
        <time>2020-05-10T15:42:19Z</time>
      </trkpt>
      <trkpt lat="45.06933" lon="2.6095">
        <ele>1083.221</ele>
        <time>2020-05-10T15:42:39Z</time>
      </trkpt>
      <trkpt lat="45.06954" lon="2.60905">
        <ele>1096.216</ele>
        <time>2020-05-10T15:42:59Z</time>
      </trkpt>
      <trkpt lat="45.06938" lon="2.60864">
        <ele>1095.078</ele>
        <time>2020-05-10T15:43:19Z</time>
      </trkpt>
      <trkpt lat="45.06949" lon="2.60802">
        <ele>1108.943</ele>
        <time>2020-05-10T15:43:39Z</time>
      </trkpt>
      <trkpt lat="45.0694" lon="2.6077">
        <ele>1110.537</ele>
        <time>2020-05-10T15:43:59Z</time>
      </trkpt>
      <trkpt lat="45.06895" lon="2.60789">
        <ele>1085.541</ele>
        <time>2020-05-10T15:44:19Z</time>
      </trkpt>
      <trkpt lat="45.06878" lon="2.60779">
        <ele>1084.475</ele>
        <time>2020-05-10T15:44:39Z</time>
      </trkpt>
      <trkpt lat="45.0687" lon="2.60765">
        <ele>1084.835</ele>
        <time>2020-05-10T15:44:59Z</time>
      </trkpt>
      <trkpt lat="45.06876" lon="2.60703">
        <ele>1107.694</ele>
        <time>2020-05-10T15:45:19Z</time>
      </trkpt>
      <trkpt lat="45.06845" lon="2.60685">
        <ele>1107.557</ele>
        <time>2020-05-10T15:45:39Z</time>
      </trkpt>
      <trkpt lat="45.06793" lon="2.60711">
        <ele>1092.922</ele>
        <time>2020-05-10T15:45:59Z</time>
      </trkpt>
      <trkpt lat="45.06761" lon="2.60734">
        <ele>1085.508</ele>
        <time>2020-05-10T15:46:19Z</time>
      </trkpt>
      <trkpt lat="45.06722" lon="2.60722">
        <ele>1079.443</ele>
        <time>2020-05-10T15:46:39Z</time>
      </trkpt>
      <trkpt lat="45.06688" lon="2.60757">
        <ele>1053.948</ele>
        <time>2020-05-10T15:46:59Z</time>
      </trkpt>
      <trkpt lat="45.06646" lon="2.60755">
        <ele>1041.95</ele>
        <time>2020-05-10T15:47:19Z</time>
      </trkpt>
      <trkpt lat="45.06619" lon="2.60735">
        <ele>1053.365</ele>
        <time>2020-05-10T15:47:39Z</time>
      </trkpt>
      <trkpt lat="45.06595" lon="2.60729">
        <ele>1049.069</ele>
        <time>2020-05-10T15:47:59Z</time>
      </trkpt>
      <trkpt lat="45.06567" lon="2.60714">
        <ele>1040.063</ele>
        <time>2020-05-10T15:48:19Z</time>
      </trkpt>
      <trkpt lat="45.06509" lon="2.60732">
        <ele>1030.797</ele>
        <time>2020-05-10T15:48:39Z</time>
      </trkpt>
      <trkpt lat="45.06426" lon="2.60719">
        <ele>1024.887</ele>
        <time>2020-05-10T15:48:59Z</time>
      </trkpt>
      <trkpt lat="45.0641" lon="2.60692">
        <ele>1026.273</ele>
        <time>2020-05-10T15:49:19Z</time>
      </trkpt>
      <trkpt lat="45.06368" lon="2.6067">
        <ele>1024.385</ele>
        <time>2020-05-10T15:49:39Z</time>
      </trkpt>
      <trkpt lat="45.06364" lon="2.60643">
        <ele>1039.013</ele>
        <time>2020-05-10T15:49:59Z</time>
      </trkpt>
      <trkpt lat="45.0634" lon="2.60626">
        <ele>1040.208</ele>
        <time>2020-05-10T15:50:19Z</time>
      </trkpt>
      <trkpt lat="45.06312" lon="2.60625">
        <ele>1038.521</ele>
        <time>2020-05-10T15:50:39Z</time>
      </trkpt>
      <trkpt lat="45.06265" lon="2.60656">
        <ele>1033.946</ele>
        <time>2020-05-10T15:50:59Z</time>
      </trkpt>
      <trkpt lat="45.0622" lon="2.6067">
        <ele>1023.528</ele>
        <time>2020-05-10T15:51:19Z</time>
      </trkpt>
      <trkpt lat="45.06147" lon="2.60657">
        <ele>1022.053</ele>
        <time>2020-05-10T15:51:39Z</time>
      </trkpt>
      <trkpt lat="45.06216" lon="2.60591">
        <ele>1038.387</ele>
        <time>2020-05-10T15:51:59Z</time>
      </trkpt>
      <trkpt lat="45.06247" lon="2.60532">
        <ele>1047.251</ele>
        <time>2020-05-10T15:52:19Z</time>
      </trkpt>
      <trkpt lat="45.06263" lon="2.6048">
        <ele>1064.115</ele>
        <time>2020-05-10T15:52:39Z</time>
      </trkpt>
      <trkpt lat="45.0631" lon="2.60448">
        <ele>1070.385</ele>
        <time>2020-05-10T15:52:59Z</time>
      </trkpt>
      <trkpt lat="45.06339" lon="2.60404">
        <ele>1087.516</ele>
        <time>2020-05-10T15:53:19Z</time>
      </trkpt>
      <trkpt lat="45.06384" lon="2.60389">
        <ele>1097.576</ele>
        <time>2020-05-10T15:53:39Z</time>
      </trkpt>
      <trkpt lat="45.06404" lon="2.6034">
        <ele>1106.513</ele>
        <time>2020-05-10T15:53:59Z</time>
      </trkpt>
      <trkpt lat="45.0641" lon="2.60265">
        <ele>1104.108</ele>
        <time>2020-05-10T15:54:19Z</time>
      </trkpt>
      <trkpt lat="45.0643" lon="2.60218">
        <ele>1123.945</ele>
        <time>2020-05-10T15:54:39Z</time>
      </trkpt>
      <trkpt lat="45.06463" lon="2.60191">
        <ele>1130.99</ele>
        <time>2020-05-10T15:54:59Z</time>
      </trkpt>
      <trkpt lat="45.06474" lon="2.6015">
        <ele>1123.812</ele>
        <time>2020-05-10T15:55:19Z</time>
      </trkpt>
      <trkpt lat="45.06514" lon="2.6007">
        <ele>1146.737</ele>
        <time>2020-05-10T15:55:39Z</time>
      </trkpt>
      <trkpt lat="45.06541" lon="2.60039">
        <ele>1159.971</ele>
        <time>2020-05-10T15:55:59Z</time>
      </trkpt>
      <trkpt lat="45.06514" lon="2.59947">
        <ele>1161.725</ele>
        <time>2020-05-10T15:56:19Z</time>
      </trkpt>
      <trkpt lat="45.06555" lon="2.59904">
        <ele>1179.289</ele>
        <time>2020-05-10T15:56:39Z</time>
      </trkpt>
      <trkpt lat="45.06511" lon="2.59883">
        <ele>1174.549</ele>
        <time>2020-05-10T15:56:59Z</time>
      </trkpt>
      <trkpt lat="45.06533" lon="2.59822">
        <ele>1191.282</ele>
        <time>2020-05-10T15:57:19Z</time>
      </trkpt>
      <trkpt lat="45.06569" lon="2.59763">
        <ele>1206.743</ele>
        <time>2020-05-10T15:57:39Z</time>
      </trkpt>
      <trkpt lat="45.06613" lon="2.59753">
        <ele>1222.917</ele>
        <time>2020-05-10T15:57:59Z</time>
      </trkpt>
      <trkpt lat="45.06645" lon="2.59703">
        <ele>1242.408</ele>
        <time>2020-05-10T15:58:19Z</time>
      </trkpt>
      <trkpt lat="45.06661" lon="2.59661">
        <ele>1258.962</ele>
        <time>2020-05-10T15:58:39Z</time>
      </trkpt>
      <trkpt lat="45.06785" lon="2.59648">
        <ele>1289.747</ele>
        <time>2020-05-10T15:58:59Z</time>
      </trkpt>
      <trkpt lat="45.06828" lon="2.59688">
        <ele>1282.429</ele>
        <time>2020-05-10T15:59:19Z</time>
      </trkpt>
      <trkpt lat="45.06873" lon="2.59685">
        <ele>1304.234</ele>
        <time>2020-05-10T15:59:39Z</time>
      </trkpt>
      <trkpt lat="45.06905" lon="2.59696">
        <ele>1310.188</ele>
        <time>2020-05-10T15:59:59Z</time>
      </trkpt>
      <trkpt lat="45.06902" lon="2.59669">
        <ele>1313.832</ele>
        <time>2020-05-10T16:00:19Z</time>
      </trkpt>
      <trkpt lat="45.06862" lon="2.59633">
        <ele>1315.066</ele>
        <time>2020-05-10T16:00:39Z</time>
      </trkpt>
      <trkpt lat="45.06843" lon="2.59566">
        <ele>1329.346</ele>
        <time>2020-05-10T16:00:59Z</time>
      </trkpt>
      <trkpt lat="45.06729" lon="2.59482">
        <ele>1312.165</ele>
        <time>2020-05-10T16:01:19Z</time>
      </trkpt>
      <trkpt lat="45.06732" lon="2.59394">
        <ele>1323.868</ele>
        <time>2020-05-10T16:01:39Z</time>
      </trkpt>
      <trkpt lat="45.06723" lon="2.59353">
        <ele>1324.514</ele>
        <time>2020-05-10T16:01:59Z</time>
      </trkpt>
      <trkpt lat="45.06703" lon="2.59309">
        <ele>1324.808</ele>
        <time>2020-05-10T16:02:19Z</time>
      </trkpt>
      <trkpt lat="45.06743" lon="2.59343">
        <ele>1330.96</ele>
        <time>2020-05-10T16:02:39Z</time>
      </trkpt>
      <trkpt lat="45.06789" lon="2.59397">
        <ele>1342.185</ele>
        <time>2020-05-10T16:02:59Z</time>
      </trkpt>
      <trkpt lat="45.06842" lon="2.594">
        <ele>1355.557</ele>
        <time>2020-05-10T16:03:19Z</time>
      </trkpt>
      <trkpt lat="45.06949" lon="2.59389">
        <ele>1370.092</ele>
        <time>2020-05-10T16:03:39Z</time>
      </trkpt>
      <trkpt lat="45.07023" lon="2.59373">
        <ele>1377.376</ele>
        <time>2020-05-10T16:03:59Z</time>
      </trkpt>
      <trkpt lat="45.07142" lon="2.59431">
        <ele>1375.71</ele>
        <time>2020-05-10T16:04:19Z</time>
      </trkpt>
      <trkpt lat="45.07196" lon="2.59482">
        <ele>1373.344</ele>
        <time>2020-05-10T16:04:39Z</time>
      </trkpt>
      <trkpt lat="45.07234" lon="2.59493">
        <ele>1373.674</ele>
        <time>2020-05-10T16:04:59Z</time>
      </trkpt>
      <trkpt lat="45.0728" lon="2.59488">
        <ele>1369.026</ele>
        <time>2020-05-10T16:05:19Z</time>
      </trkpt>
      <trkpt lat="45.07342" lon="2.59498">
        <ele>1372.847</ele>
        <time>2020-05-10T16:05:39Z</time>
      </trkpt>
      <trkpt lat="45.07377" lon="2.59517">
        <ele>1380.611</ele>
        <time>2020-05-10T16:05:59Z</time>
      </trkpt>
      <trkpt lat="45.07392" lon="2.59543">
        <ele>1382.408</ele>
        <time>2020-05-10T16:06:19Z</time>
      </trkpt>
      <trkpt lat="45.07421" lon="2.59569">
        <ele>1379.216</ele>
        <time>2020-05-10T16:06:39Z</time>
      </trkpt>
      <trkpt lat="45.07437" lon="2.59605">
        <ele>1382.161</ele>
        <time>2020-05-10T16:06:59Z</time>
      </trkpt>
      <trkpt lat="45.07445" lon="2.59654">
        <ele>1383.553</ele>
        <time>2020-05-10T16:07:19Z</time>
      </trkpt>
      <trkpt lat="45.0747" lon="2.59774">
        <ele>1389.848</ele>
        <time>2020-05-10T16:07:39Z</time>
      </trkpt>
      <trkpt lat="45.07488" lon="2.59862">
        <ele>1392.912</ele>
        <time>2020-05-10T16:07:59Z</time>
      </trkpt>
      <trkpt lat="45.075" lon="2.60023">
        <ele>1380.996</ele>
        <time>2020-05-10T16:08:19Z</time>
      </trkpt>
      <trkpt lat="45.07483" lon="2.60085">
        <ele>1385.22</ele>
        <time>2020-05-10T16:08:39Z</time>
      </trkpt>
      <trkpt lat="45.07491" lon="2.60108">
        <ele>1384.54</ele>
        <time>2020-05-10T16:08:59Z</time>
      </trkpt>
      <trkpt lat="45.07487" lon="2.6016">
        <ele>1380.528</ele>
        <time>2020-05-10T16:09:19Z</time>
      </trkpt>
      <trkpt lat="45.07484" lon="2.60215">
        <ele>1371.289</ele>
        <time>2020-05-10T16:09:39Z</time>
      </trkpt>
      <trkpt lat="45.07469" lon="2.6027">
        <ele>1364.117</ele>
        <time>2020-05-10T16:09:59Z</time>
      </trkpt>
      <trkpt lat="45.07473" lon="2.60313">
        <ele>1363.308</ele>
        <time>2020-05-10T16:10:19Z</time>
      </trkpt>
      <trkpt lat="45.07487" lon="2.60373">
        <ele>1361.196</ele>
        <time>2020-05-10T16:10:39Z</time>
      </trkpt>
      <trkpt lat="45.07488" lon="2.60482">
        <ele>1357.621</ele>
        <time>2020-05-10T16:10:59Z</time>
      </trkpt>
      <trkpt lat="45.07483" lon="2.60552">
        <ele>1353.183</ele>
        <time>2020-05-10T16:11:19Z</time>
      </trkpt>
      <trkpt lat="45.0747" lon="2.60635">
        <ele>1346.968</ele>
        <time>2020-05-10T16:11:39Z</time>
      </trkpt>
      <trkpt lat="45.0748" lon="2.60683">
        <ele>1344.892</ele>
        <time>2020-05-10T16:11:59Z</time>
      </trkpt>
      <trkpt lat="45.07534" lon="2.60787">
        <ele>1345.896</ele>
        <time>2020-05-10T16:12:19Z</time>
      </trkpt>
      <trkpt lat="45.07553" lon="2.60815">
        <ele>1345.19</ele>
        <time>2020-05-10T16:12:39Z</time>
      </trkpt>
      <trkpt lat="45.07582" lon="2.61092">
        <ele>1326.96</ele>
        <time>2020-05-10T16:12:59Z</time>
      </trkpt>
      <trkpt lat="45.07569" lon="2.61215">
        <ele>1330.243</ele>
        <time>2020-05-10T16:13:19Z</time>
      </trkpt>
      <trkpt lat="45.07605" lon="2.61314">
        <ele>1349.364</ele>
        <time>2020-05-10T16:13:39Z</time>
      </trkpt>
      <trkpt lat="45.07635" lon="2.61495">
        <ele>1382.61</ele>
        <time>2020-05-10T16:13:59Z</time>
      </trkpt>
      <trkpt lat="45.07668" lon="2.61555">
        <ele>1392.708</ele>
        <time>2020-05-10T16:14:19Z</time>
      </trkpt>
      <trkpt lat="45.07675" lon="2.61604">
        <ele>1405.138</ele>
        <time>2020-05-10T16:14:39Z</time>
      </trkpt>
      <trkpt lat="45.07671" lon="2.61664">
        <ele>1412.423</ele>
        <time>2020-05-10T16:14:59Z</time>
      </trkpt>
      <trkpt lat="45.07701" lon="2.61723">
        <ele>1417.635</ele>
        <time>2020-05-10T16:15:19Z</time>
      </trkpt>
      <trkpt lat="45.07739" lon="2.61765">
        <ele>1425.14</ele>
        <time>2020-05-10T16:15:39Z</time>
      </trkpt>
      <trkpt lat="45.07732" lon="2.61812">
        <ele>1425.114</ele>
        <time>2020-05-10T16:15:59Z</time>
      </trkpt>
      <trkpt lat="45.07696" lon="2.61908">
        <ele>1432.588</ele>
        <time>2020-05-10T16:16:19Z</time>
      </trkpt>
      <trkpt lat="45.0767" lon="2.6201">
        <ele>1455.032</ele>
        <time>2020-05-10T16:16:39Z</time>
      </trkpt>
      <trkpt lat="45.07661" lon="2.62107">
        <ele>1465.982</ele>
        <time>2020-05-10T16:16:59Z</time>
      </trkpt>
      <trkpt lat="45.07664" lon="2.62141">
        <ele>1471.885</ele>
        <time>2020-05-10T16:17:19Z</time>
      </trkpt>
      <trkpt lat="45.0766" lon="2.62153">
        <ele>1475.989</ele>
        <time>2020-05-10T16:17:39Z</time>
      </trkpt>
      <trkpt lat="45.07663" lon="2.6219">
        <ele>1483.517</ele>
        <time>2020-05-10T16:17:59Z</time>
      </trkpt>
      <trkpt lat="45.0767" lon="2.62206">
        <ele>1489.408</ele>
        <time>2020-05-10T16:18:19Z</time>
      </trkpt>
      <trkpt lat="45.07661" lon="2.62235">
        <ele>1491.512</ele>
        <time>2020-05-10T16:18:39Z</time>
      </trkpt>
      <trkpt lat="45.07664" lon="2.6226">
        <ele>1497.067</ele>
        <time>2020-05-10T16:18:59Z</time>
      </trkpt>
      <trkpt lat="45.07704" lon="2.62309">
        <ele>1501.669</ele>
        <time>2020-05-10T16:19:19Z</time>
      </trkpt>
      <trkpt lat="45.07712" lon="2.62355">
        <ele>1504.434</ele>
        <time>2020-05-10T16:19:39Z</time>
      </trkpt>
      <trkpt lat="45.07755" lon="2.62449">
        <ele>1498.258</ele>
        <time>2020-05-10T16:19:59Z</time>
      </trkpt>
      <trkpt lat="45.07752" lon="2.62493">
        <ele>1500.752</ele>
        <time>2020-05-10T16:20:19Z</time>
      </trkpt>
      <trkpt lat="45.07746" lon="2.62534">
        <ele>1491.856</ele>
        <time>2020-05-10T16:20:39Z</time>
      </trkpt>
      <trkpt lat="45.07757" lon="2.6258">
        <ele>1495.176</ele>
        <time>2020-05-10T16:20:59Z</time>
      </trkpt>
      <trkpt lat="45.07767" lon="2.62639">
        <ele>1496.125</ele>
        <time>2020-05-10T16:21:19Z</time>
      </trkpt>
      <trkpt lat="45.07789" lon="2.62691">
        <ele>1502.226</ele>
        <time>2020-05-10T16:21:39Z</time>
      </trkpt>
      <trkpt lat="45.07835" lon="2.62866">
        <ele>1524.008</ele>
        <time>2020-05-10T16:21:59Z</time>
      </trkpt>
      <trkpt lat="45.07828" lon="2.62894">
        <ele>1523.908</ele>
        <time>2020-05-10T16:22:19Z</time>
      </trkpt>
      <trkpt lat="45.07852" lon="2.62993">
        <ele>1538.996</ele>
        <time>2020-05-10T16:22:39Z</time>
      </trkpt>
      <trkpt lat="45.07871" lon="2.63016">
        <ele>1541.091</ele>
        <time>2020-05-10T16:22:59Z</time>
      </trkpt>
      <trkpt lat="45.07883" lon="2.63077">
        <ele>1541.733</ele>
        <time>2020-05-10T16:23:19Z</time>
      </trkpt>
      <trkpt lat="45.07915" lon="2.63146">
        <ele>1545.128</ele>
        <time>2020-05-10T16:23:39Z</time>
      </trkpt>
      <trkpt lat="45.07933" lon="2.63169">
        <ele>1552.912</ele>
        <time>2020-05-10T16:23:59Z</time>
      </trkpt>
      <trkpt lat="45.07932" lon="2.63194">
        <ele>1553.196</ele>
        <time>2020-05-10T16:24:19Z</time>
      </trkpt>
      <trkpt lat="45.07959" lon="2.6326">
        <ele>1550.34</ele>
        <time>2020-05-10T16:24:39Z</time>
      </trkpt>
      <trkpt lat="45.0808" lon="2.63392">
        <ele>1550.55</ele>
        <time>2020-05-10T16:24:59Z</time>
      </trkpt>
      <trkpt lat="45.08141" lon="2.63483">
        <ele>1545.159</ele>
        <time>2020-05-10T16:25:19Z</time>
      </trkpt>
      <trkpt lat="45.08165" lon="2.63501">
        <ele>1550.603</ele>
        <time>2020-05-10T16:25:39Z</time>
      </trkpt>
      <trkpt lat="45.08177" lon="2.63499">
        <ele>1543.823</ele>
        <time>2020-05-10T16:25:59Z</time>
      </trkpt>
      <trkpt lat="45.08179" lon="2.63531">
        <ele>1545.208</ele>
        <time>2020-05-10T16:26:19Z</time>
      </trkpt>
      <trkpt lat="45.08194" lon="2.63582">
        <ele>1546.539</ele>
        <time>2020-05-10T16:26:39Z</time>
      </trkpt>
      <trkpt lat="45.08183" lon="2.63619">
        <ele>1553.564</ele>
        <time>2020-05-10T16:26:59Z</time>
      </trkpt>
      <trkpt lat="45.08196" lon="2.63699">
        <ele>1558.376</ele>
        <time>2020-05-10T16:27:19Z</time>
      </trkpt>
      <trkpt lat="45.08208" lon="2.63712">
        <ele>1559.571</ele>
        <time>2020-05-10T16:27:39Z</time>
      </trkpt>
      <trkpt lat="45.0822" lon="2.6374">
        <ele>1562.785</ele>
        <time>2020-05-10T16:27:59Z</time>
      </trkpt>
      <trkpt lat="45.08222" lon="2.63759">
        <ele>1558.899</ele>
        <time>2020-05-10T16:28:19Z</time>
      </trkpt>
      <trkpt lat="45.08245" lon="2.63772">
        <ele>1562.873</ele>
        <time>2020-05-10T16:28:39Z</time>
      </trkpt>
      <trkpt lat="45.08287" lon="2.63864">
        <ele>1565.543</ele>
        <time>2020-05-10T16:28:59Z</time>
      </trkpt>
      <trkpt lat="45.0832" lon="2.63897">
        <ele>1569.072</ele>
        <time>2020-05-10T16:29:19Z</time>
      </trkpt>
      <trkpt lat="45.08355" lon="2.63987">
        <ele>1563.613</ele>
        <time>2020-05-10T16:29:39Z</time>
      </trkpt>
      <trkpt lat="45.08399" lon="2.64107">
        <ele>1547.114</ele>
        <time>2020-05-10T16:29:59Z</time>
      </trkpt>
      <trkpt lat="45.08413" lon="2.64182">
        <ele>1542.408</ele>
        <time>2020-05-10T16:30:19Z</time>
      </trkpt>
      <trkpt lat="45.08431" lon="2.64245">
        <ele>1546.121</ele>
        <time>2020-05-10T16:30:39Z</time>
      </trkpt>
      <trkpt lat="45.08425" lon="2.64276">
        <ele>1547.966</ele>
        <time>2020-05-10T16:30:59Z</time>
      </trkpt>
      <trkpt lat="45.08436" lon="2.6432">
        <ele>1548.958</ele>
        <time>2020-05-10T16:31:19Z</time>
      </trkpt>
      <trkpt lat="45.08441" lon="2.64402">
        <ele>1547.893</ele>
        <time>2020-05-10T16:31:39Z</time>
      </trkpt>
      <trkpt lat="45.08454" lon="2.64396">
        <ele>1548.287</ele>
        <time>2020-05-10T16:31:59Z</time>
      </trkpt>
      <trkpt lat="45.08469" lon="2.64397">
        <ele>1548.391</ele>
        <time>2020-05-10T16:32:19Z</time>
      </trkpt>
      <trkpt lat="45.08494" lon="2.64392">
        <ele>1548.425</ele>
        <time>2020-05-10T16:32:39Z</time>
      </trkpt>
      <trkpt lat="45.08553" lon="2.64402">
        <ele>1542.555</ele>
        <time>2020-05-10T16:32:59Z</time>
      </trkpt>
      <trkpt lat="45.0856" lon="2.64417">
        <ele>1535.132</ele>
        <time>2020-05-10T16:33:19Z</time>
      </trkpt>
      <trkpt lat="45.08591" lon="2.64439">
        <ele>1529.692</ele>
        <time>2020-05-10T16:33:39Z</time>
      </trkpt>
      <trkpt lat="45.0863" lon="2.64453">
        <ele>1523.911</ele>
        <time>2020-05-10T16:33:59Z</time>
      </trkpt>
      <trkpt lat="45.0866" lon="2.64451">
        <ele>1523.508</ele>
        <time>2020-05-10T16:34:19Z</time>
      </trkpt>
      <trkpt lat="45.08778" lon="2.64392">
        <ele>1554.557</ele>
        <time>2020-05-10T16:34:39Z</time>
      </trkpt>
      <trkpt lat="45.08821" lon="2.64382">
        <ele>1560.592</ele>
        <time>2020-05-10T16:34:59Z</time>
      </trkpt>
      <trkpt lat="45.08843" lon="2.64396">
        <ele>1577.244</ele>
        <time>2020-05-10T16:35:19Z</time>
      </trkpt>
      <trkpt lat="45.08873" lon="2.64377">
        <ele>1582.929</ele>
        <time>2020-05-10T16:35:39Z</time>
      </trkpt>
      <trkpt lat="45.0888" lon="2.6438">
        <ele>1584.173</ele>
        <time>2020-05-10T16:35:59Z</time>
      </trkpt>
      <trkpt lat="45.08894" lon="2.64401">
        <ele>1587.947</ele>
        <time>2020-05-10T16:36:19Z</time>
      </trkpt>
      <trkpt lat="45.08927" lon="2.64414">
        <ele>1600.891</ele>
        <time>2020-05-10T16:36:39Z</time>
      </trkpt>
      <trkpt lat="45.08976" lon="2.64406">
        <ele>1605.391</ele>
        <time>2020-05-10T16:36:59Z</time>
      </trkpt>
      <trkpt lat="45.09014" lon="2.64382">
        <ele>1616.372</ele>
        <time>2020-05-10T16:37:19Z</time>
      </trkpt>
      <trkpt lat="45.09048" lon="2.64343">
        <ele>1623.913</ele>
        <time>2020-05-10T16:37:39Z</time>
      </trkpt>
      <trkpt lat="45.09078" lon="2.64324">
        <ele>1635.714</ele>
        <time>2020-05-10T16:37:59Z</time>
      </trkpt>
      <trkpt lat="45.09118" lon="2.64286">
        <ele>1650.208</ele>
        <time>2020-05-10T16:38:19Z</time>
      </trkpt>
      <trkpt lat="45.09152" lon="2.64269">
        <ele>1657.961</ele>
        <time>2020-05-10T16:38:39Z</time>
      </trkpt>
      <trkpt lat="45.09204" lon="2.64257">
        <ele>1673.876</ele>
        <time>2020-05-10T16:38:59Z</time>
      </trkpt>
      <trkpt lat="45.09264" lon="2.64262">
        <ele>1686.958</ele>
        <time>2020-05-10T16:39:19Z</time>
      </trkpt>
      <trkpt lat="45.09305" lon="2.64289">
        <ele>1688.143</ele>
        <time>2020-05-10T16:39:39Z</time>
      </trkpt>
      <trkpt lat="45.09348" lon="2.64309">
        <ele>1694.287</ele>
        <time>2020-05-10T16:39:59Z</time>
      </trkpt>
      <trkpt lat="45.09372" lon="2.64335">
        <ele>1692.251</ele>
        <time>2020-05-10T16:40:19Z</time>
      </trkpt>
      <trkpt lat="45.09391" lon="2.64331">
        <ele>1697.195</ele>
        <time>2020-05-10T16:40:39Z</time>
      </trkpt>
      <trkpt lat="45.09458" lon="2.64368">
        <ele>1706.615</ele>
        <time>2020-05-10T16:40:59Z</time>
      </trkpt>
      <trkpt lat="45.09484" lon="2.64414">
        <ele>1713.266</ele>
        <time>2020-05-10T16:41:19Z</time>
      </trkpt>
      <trkpt lat="45.0952" lon="2.64443">
        <ele>1720.229</ele>
        <time>2020-05-10T16:41:39Z</time>
      </trkpt>
      <trkpt lat="45.09579" lon="2.6447">
        <ele>1721.421</ele>
        <time>2020-05-10T16:41:59Z</time>
      </trkpt>
      <trkpt lat="45.09633" lon="2.64472">
        <ele>1715.808</ele>
        <time>2020-05-10T16:42:19Z</time>
      </trkpt>
      <trkpt lat="45.09704" lon="2.64556">
        <ele>1693.94</ele>
        <time>2020-05-10T16:42:39Z</time>
      </trkpt>
      <trkpt lat="45.09721" lon="2.64565">
        <ele>1692.185</ele>
        <time>2020-05-10T16:42:59Z</time>
      </trkpt>
      <trkpt lat="45.09735" lon="2.64581">
        <ele>1689.917</ele>
        <time>2020-05-10T16:43:19Z</time>
      </trkpt>
      <trkpt lat="45.09759" lon="2.6459">
        <ele>1680.792</ele>
        <time>2020-05-10T16:43:39Z</time>
      </trkpt>
      <trkpt lat="45.09798" lon="2.64676">
        <ele>1668.186</ele>
        <time>2020-05-10T16:43:59Z</time>
      </trkpt>
      <trkpt lat="45.09825" lon="2.64734">
        <ele>1667.82</ele>
        <time>2020-05-10T16:44:19Z</time>
      </trkpt>
      <trkpt lat="45.09842" lon="2.64799">
        <ele>1661.354</ele>
        <time>2020-05-10T16:44:39Z</time>
      </trkpt>
      <trkpt lat="45.09886" lon="2.64855">
        <ele>1659.394</ele>
        <time>2020-05-10T16:44:59Z</time>
      </trkpt>
      <trkpt lat="45.09912" lon="2.64931">
        <ele>1663.361</ele>
        <time>2020-05-10T16:45:19Z</time>
      </trkpt>
      <trkpt lat="45.09931" lon="2.64972">
        <ele>1659.121</ele>
        <time>2020-05-10T16:45:39Z</time>
      </trkpt>
      <trkpt lat="45.09942" lon="2.65035">
        <ele>1661.413</ele>
        <time>2020-05-10T16:45:59Z</time>
      </trkpt>
      <trkpt lat="45.09963" lon="2.65077">
        <ele>1660.408</ele>
        <time>2020-05-10T16:46:19Z</time>
      </trkpt>
      <trkpt lat="45.09992" lon="2.6512">
        <ele>1662.74</ele>
        <time>2020-05-10T16:46:39Z</time>
      </trkpt>
      <trkpt lat="45.10022" lon="2.65203">
        <ele>1659.545</ele>
        <time>2020-05-10T16:46:59Z</time>
      </trkpt>
      <trkpt lat="45.10074" lon="2.65264">
        <ele>1660.647</ele>
        <time>2020-05-10T16:47:19Z</time>
      </trkpt>
      <trkpt lat="45.10164" lon="2.65323">
        <ele>1642.972</ele>
        <time>2020-05-10T16:47:39Z</time>
      </trkpt>
      <trkpt lat="45.10193" lon="2.65363">
        <ele>1633.986</ele>
        <time>2020-05-10T16:47:59Z</time>
      </trkpt>
      <trkpt lat="45.10226" lon="2.65392">
        <ele>1632.21</ele>
        <time>2020-05-10T16:48:19Z</time>
      </trkpt>
      <trkpt lat="45.10247" lon="2.65385">
        <ele>1631.774</ele>
        <time>2020-05-10T16:48:39Z</time>
      </trkpt>
      <trkpt lat="45.10273" lon="2.65365">
        <ele>1630.514</ele>
        <time>2020-05-10T16:48:59Z</time>
      </trkpt>
      <trkpt lat="45.10288" lon="2.65359">
        <ele>1630.637</ele>
        <time>2020-05-10T16:49:19Z</time>
      </trkpt>
      <trkpt lat="45.10354" lon="2.65312">
        <ele>1612.949</ele>
        <time>2020-05-10T16:49:39Z</time>
      </trkpt>
      <trkpt lat="45.10366" lon="2.65292">
        <ele>1608.713</ele>
        <time>2020-05-10T16:49:59Z</time>
      </trkpt>
      <trkpt lat="45.10399" lon="2.65268">
        <ele>1603.908</ele>
        <time>2020-05-10T16:50:19Z</time>
      </trkpt>
      <trkpt lat="45.10426" lon="2.65241">
        <ele>1596.5</ele>
      </trkpt>
      <trkpt lat="45.10445" lon="2.65197">
        <ele>1594.2</ele>
      </trkpt>
      <trkpt lat="45.10493" lon="2.65119">
        <ele>1594.3</ele>
      </trkpt>
      <trkpt lat="45.10495" lon="2.65129">
        <ele>1594.9</ele>
      </trkpt>
      <trkpt lat="45.10478" lon="2.65169">
        <ele>1595.1</ele>
      </trkpt>
      <trkpt lat="45.10467" lon="2.6536">
        <ele>1586.4</ele>
      </trkpt>
      <trkpt lat="45.10474" lon="2.65375">
        <ele>1584.3</ele>
      </trkpt>
      <trkpt lat="45.10472" lon="2.65411">
        <ele>1588.9</ele>
      </trkpt>
      <trkpt lat="45.10522" lon="2.65474">
        <ele>1580.7</ele>
      </trkpt>
      <trkpt lat="45.10518" lon="2.65498">
        <ele>1588.6</ele>
      </trkpt>
      <trkpt lat="45.10559" lon="2.65555">
        <ele>1585.9</ele>
      </trkpt>
      <trkpt lat="45.10587" lon="2.65593">
        <ele>1582.6</ele>
      </trkpt>
      <trkpt lat="45.10602" lon="2.6568">
        <ele>1588.7</ele>
      </trkpt>
      <trkpt lat="45.10617" lon="2.65694">
        <ele>1580.6</ele>
      </trkpt>
      <trkpt lat="45.10621" lon="2.65728">
        <ele>1581.1</ele>
      </trkpt>
      <trkpt lat="45.10606" lon="2.65796">
        <ele>1585.5</ele>
      </trkpt>
      <trkpt lat="45.10594" lon="2.65843">
        <ele>1582.8</ele>
      </trkpt>
      <trkpt lat="45.10599" lon="2.65878">
        <ele>1568.8</ele>
      </trkpt>
      <trkpt lat="45.1059" lon="2.65882">
        <ele>1571.6</ele>
      </trkpt>
      <trkpt lat="45.10576" lon="2.65905">
        <ele>1569.2</ele>
      </trkpt>
      <trkpt lat="45.10539" lon="2.6594">
        <ele>1565.2</ele>
      </trkpt>
      <trkpt lat="45.10502" lon="2.66001">
        <ele>1553.2</ele>
      </trkpt>
      <trkpt lat="45.10472" lon="2.6607">
        <ele>1533.2</ele>
      </trkpt>
      <trkpt lat="45.10455" lon="2.66119">
        <ele>1526.5</ele>
      </trkpt>
      <trkpt lat="45.10438" lon="2.66141">
        <ele>1525.5</ele>
      </trkpt>
      <trkpt lat="45.10435" lon="2.66187">
        <ele>1519.3</ele>
      </trkpt>
      <trkpt lat="45.10442" lon="2.66214">
        <ele>1514.7</ele>
      </trkpt>
      <trkpt lat="45.10428" lon="2.66224">
        <ele>1515.3</ele>
      </trkpt>
      <trkpt lat="45.10418" lon="2.662">
        <ele>1516</ele>
      </trkpt>
      <trkpt lat="45.10396" lon="2.66085">
        <ele>1521</ele>
      </trkpt>
      <trkpt lat="45.1036" lon="2.66033">
        <ele>1523</ele>
      </trkpt>
      <trkpt lat="45.1031" lon="2.6597">
        <ele>1512</ele>
      </trkpt>
      <trkpt lat="45.10274" lon="2.65871">
        <ele>1527</ele>
      </trkpt>
      <trkpt lat="45.10241" lon="2.65798">
        <ele>1507</ele>
      </trkpt>
      <trkpt lat="45.10195" lon="2.65694">
        <ele>1531</ele>
      </trkpt>
      <trkpt lat="45.10141" lon="2.65715">
        <ele>1502</ele>
      </trkpt>
      <trkpt lat="45.10087" lon="2.65746">
        <ele>1480</ele>
      </trkpt>
      <trkpt lat="45.10033" lon="2.65809">
        <ele>1448</ele>
      </trkpt>
      <trkpt lat="45.10001" lon="2.65903">
        <ele>1418</ele>
      </trkpt>
      <trkpt lat="45.09961" lon="2.66023">
        <ele>1358</ele>
      </trkpt>
      <trkpt lat="45.09932" lon="2.66091">
        <ele>1333</ele>
      </trkpt>
      <trkpt lat="45.09879" lon="2.66111">
        <ele>1323</ele>
      </trkpt>
      <trkpt lat="45.09832" lon="2.66085">
        <ele>1330</ele>
      </trkpt>
      <trkpt lat="45.09774" lon="2.6607">
        <ele>1342</ele>
      </trkpt>
      <trkpt lat="45.09699" lon="2.6608">
        <ele>1346</ele>
      </trkpt>
      <trkpt lat="45.09548" lon="2.66211">
        <ele>1288</ele>
      </trkpt>
      <trkpt lat="45.09415" lon="2.6631">
        <ele>1237</ele>
      </trkpt>
      <trkpt lat="45.0939" lon="2.66357">
        <ele>1229</ele>
      </trkpt>
      <trkpt lat="45.09411" lon="2.66419">
        <ele>1231</ele>
      </trkpt>
      <trkpt lat="45.09433" lon="2.66472">
        <ele>1226</ele>
      </trkpt>
      <trkpt lat="45.09401" lon="2.66545">
        <ele>1201</ele>
      </trkpt>
      <trkpt lat="45.09361" lon="2.6655">
        <ele>1197</ele>
      </trkpt>
      <trkpt lat="45.09322" lon="2.66487">
        <ele>1197</ele>
      </trkpt>
      <trkpt lat="45.09293" lon="2.66325">
        <ele>1204</ele>
      </trkpt>
      <trkpt lat="45.09235" lon="2.66258">
        <ele>1192</ele>
      </trkpt>
      <trkpt lat="45.09235" lon="2.6619">
        <ele>1203</ele>
      </trkpt>
      <trkpt lat="45.09131" lon="2.66091">
        <ele>1203</ele>
      </trkpt>
      <trkpt lat="45.09131" lon="2.65986">
        <ele>1214</ele>
      </trkpt>
      <trkpt lat="45.09092" lon="2.6595">
        <ele>1211</ele>
      </trkpt>
      <trkpt lat="45.09084" lon="2.65877">
        <ele>1220</ele>
      </trkpt>
      <trkpt lat="45.09002" lon="2.6584">
        <ele>1223</ele>
      </trkpt>
      <trkpt lat="45.08948" lon="2.65845">
        <ele>1209</ele>
      </trkpt>
      <trkpt lat="45.08919" lon="2.65767">
        <ele>1223</ele>
      </trkpt>
      <trkpt lat="45.08872" lon="2.65736">
        <ele>1218</ele>
      </trkpt>
      <trkpt lat="45.08819" lon="2.65736">
        <ele>1198</ele>
      </trkpt>
      <trkpt lat="45.08793" lon="2.65699">
        <ele>1194</ele>
      </trkpt>
      <trkpt lat="45.08747" lon="2.65631">
        <ele>1178</ele>
      </trkpt>
      <trkpt lat="45.0866" lon="2.65584">
        <ele>1166</ele>
      </trkpt>
      <trkpt lat="45.08589" lon="2.65584">
        <ele>1154</ele>
      </trkpt>
      <trkpt lat="45.0856" lon="2.65558">
        <ele>1160</ele>
      </trkpt>
      <trkpt lat="45.08513" lon="2.65589">
        <ele>1153</ele>
      </trkpt>
      <trkpt lat="45.08481" lon="2.65668">
        <ele>1146</ele>
      </trkpt>
      <trkpt lat="45.0843" lon="2.65678">
        <ele>1150</ele>
      </trkpt>
      <trkpt lat="45.08391" lon="2.65652">
        <ele>1165</ele>
      </trkpt>
      <trkpt lat="45.0829" lon="2.65673">
        <ele>1151</ele>
      </trkpt>
      <trkpt lat="45.08244" lon="2.656">
        <ele>1158</ele>
      </trkpt>
      <trkpt lat="45.08218" lon="2.65501">
        <ele>1173</ele>
      </trkpt>
      <trkpt lat="45.08179" lon="2.65407">
        <ele>1191</ele>
      </trkpt>
      <trkpt lat="45.08129" lon="2.6537">
        <ele>1193</ele>
      </trkpt>
      <trkpt lat="45.08032" lon="2.65381">
        <ele>1201</ele>
      </trkpt>
      <trkpt lat="45.07942" lon="2.65454">
        <ele>1189</ele>
      </trkpt>
      <trkpt lat="45.07863" lon="2.65443">
        <ele>1188</ele>
      </trkpt>
      <trkpt lat="45.07798" lon="2.65375">
        <ele>1182</ele>
      </trkpt>
      <trkpt lat="45.07669" lon="2.65422">
        <ele>1152</ele>
      </trkpt>
      <trkpt lat="45.07629" lon="2.65438">
        <ele>1142</ele>
      </trkpt>
      <trkpt lat="45.07575" lon="2.65422">
        <ele>1130</ele>
      </trkpt>
      <trkpt lat="45.07532" lon="2.65433">
        <ele>1120</ele>
      </trkpt>
      <trkpt lat="45.07529" lon="2.65511">
        <ele>1111</ele>
      </trkpt>
      <trkpt lat="45.07493" lon="2.65522">
        <ele>1091</ele>
      </trkpt>
      <trkpt lat="45.07521" lon="2.65579">
        <ele>1102</ele>
      </trkpt>
      <trkpt lat="45.07475" lon="2.65584">
        <ele>1074</ele>
      </trkpt>
      <trkpt lat="45.07457" lon="2.65506">
        <ele>1082</ele>
      </trkpt>
      <trkpt lat="45.07439" lon="2.65412">
        <ele>1099</ele>
      </trkpt>
      <trkpt lat="45.07378" lon="2.65433">
        <ele>1074</ele>
      </trkpt>
      <trkpt lat="45.07306" lon="2.65506">
        <ele>1037</ele>
      </trkpt>
      <trkpt lat="45.07277" lon="2.65563">
        <ele>1026</ele>
      </trkpt>
      <trkpt lat="45.07284" lon="2.65647">
        <ele>1011</ele>
      </trkpt>
      <trkpt lat="45.07237" lon="2.65678">
        <ele>988</ele>
      </trkpt>
      <trkpt lat="45.07169" lon="2.65678">
        <ele>977</ele>
      </trkpt>
      <trkpt lat="45.07105" lon="2.65626">
        <ele>963</ele>
      </trkpt>
      <trkpt lat="45.07079" lon="2.65616">
        <ele>948</ele>
      </trkpt>
      <trkpt lat="45.07043" lon="2.65548">
        <ele>957</ele>
      </trkpt>
      <trkpt lat="45.06997" lon="2.65542">
        <ele>943</ele>
      </trkpt>
    </trkseg>
  </trk>
</gpx>